sensor_id;sensor_type;location;lat;lon;timestamp;pressure;altitude;pressure_sealevel;temperature;humidity
5679;BME280;2862;52.560;13.566;2023-12-20T00:09:06;100029.84;;;6.99;100.00
5679;BME280;2862;52.560;13.566;2023-12-20T00:19:10;100020.31;;;6.96;100.00
5679;BME280;2862;52.560;13.566;2023-12-20T00:29:13;100020.03;;;7.10;100.00
5679;BME280;2862;52.560;13.566;2023-12-20T00:39:18;99998.78;;;6.99;100.00
5679;BME280;2862;52.560;13.566;2023-12-20T00:49:20;100009.69;;;6.96;100.00
5679;BME280;2862;52.560;13.566;2023-12-20T00:59:25;99995.06;;;7.02;100.00
5679;BME280;2862;52.560;13.566;2023-12-20T01:09:28;100003.75;;;7.04;100.00
5679;BME280;2862;52.560;13.566;2023-12-20T01:19:32;100014.50;;;7.02;100.00
5679;BME280;2862;52.560;13.566;2023-12-20T01:29:35;100002.44;;;6.98;100.00
5679;BME280;2862;52.560;13.566;2023-12-20T01:39:40;99996.38;;;7.07;100.00
5679;BME280;2862;52.560;13.566;2023-12-20T01:49:43;99992.63;;;6.99;100.00
5679;BME280;2862;52.560;13.566;2023-12-20T01:59:48;99985.91;;;6.95;100.00
5679;BME280;2862;52.560;13.566;2023-12-20T02:09:51;99991.31;;;6.93;100.00
5679;BME280;2862;52.560;13.566;2023-12-20T02:19:56;99971.00;;;7.03;100.00
5679;BME280;2862;52.560;13.566;2023-12-20T02:30:00;99966.41;;;7.05;100.00
5679;BME280;2862;52.560;13.566;2023-12-20T02:40:06;99987.09;;;7.02;100.00
5679;BME280;2862;52.560;13.566;2023-12-20T02:50:11;99975.00;;;6.98;100.00
5679;BME280;2862;52.560;13.566;2023-12-20T03:00:14;99980.59;;;6.95;100.00
5679;BME280;2862;52.560;13.566;2023-12-20T03:10:19;99988.03;;;7.12;100.00
5679;BME280;2862;52.560;13.566;2023-12-20T03:20:24;99981.50;;;7.05;100.00
5679;BME280;2862;52.560;13.566;2023-12-20T03:30:29;99996.16;;;6.88;100.00
5679;BME280;2862;52.560;13.566;2023-12-20T03:40:32;99992.16;;;6.82;100.00
5679;BME280;2862;52.560;13.566;2023-12-20T03:50:36;99980.69;;;6.82;100.00
5679;BME280;2862;52.560;13.566;2023-12-20T04:00:39;99979.25;;;6.44;100.00
5679;BME280;2862;52.560;13.566;2023-12-20T04:10:43;99966.84;;;6.56;100.00
5679;BME280;2862;52.560;13.566;2023-12-20T04:20:46;99952.09;;;6.52;100.00
5679;BME280;2862;52.560;13.566;2023-12-20T04:30:51;99967.69;;;6.45;100.00
5679;BME280;2862;52.560;13.566;2023-12-20T04:40:54;99944.88;;;6.31;100.00
5679;BME280;2862;52.560;13.566;2023-12-20T04:50:58;99958.34;;;6.17;100.00
5679;BME280;2862;52.560;13.566;2023-12-20T05:01:03;99945.44;;;6.12;100.00
5679;BME280;2862;52.560;13.566;2023-12-20T05:11:07;99958.19;;;5.96;100.00
5679;BME280;2862;52.560;13.566;2023-12-20T05:21:10;99958.09;;;5.98;100.00
5679;BME280;2862;52.560;13.566;2023-12-20T05:31:15;99963.88;;;6.03;100.00
5679;BME280;2862;52.560;13.566;2023-12-20T05:41:18;99953.06;;;5.82;100.00
5679;BME280;2862;52.560;13.566;2023-12-20T05:51:22;99959.47;;;5.55;100.00
5679;BME280;2862;52.560;13.566;2023-12-20T06:12:19;99949.13;;;5.28;100.00
5679;BME280;2862;52.560;13.566;2023-12-20T06:22:22;99928.25;;;5.48;100.00
5679;BME280;2862;52.560;13.566;2023-12-20T06:32:27;99918.81;;;5.44;100.00
5679;BME280;2862;52.560;13.566;2023-12-20T06:42:30;99929.28;;;5.34;100.00
5679;BME280;2862;52.560;13.566;2023-12-20T06:52:36;99937.09;;;5.36;100.00
5679;BME280;2862;52.560;13.566;2023-12-20T07:02:39;99913.97;;;5.38;100.00
5679;BME280;2862;52.560;13.566;2023-12-20T07:12:44;99919.56;;;5.46;100.00
5679;BME280;2862;52.560;13.566;2023-12-20T07:22:47;99920.06;;;5.51;100.00
5679;BME280;2862;52.560;13.566;2023-12-20T07:32:51;99929.84;;;5.62;100.00
5679;BME280;2862;52.560;13.566;2023-12-20T07:42:54;99916.16;;;5.79;100.00
5679;BME280;2862;52.560;13.566;2023-12-20T07:52:59;99908.25;;;6.01;100.00
5679;BME280;2862;52.560;13.566;2023-12-20T08:03:03;99907.31;;;6.02;100.00
5679;BME280;2862;52.560;13.566;2023-12-20T08:13:07;99908.38;;;6.00;100.00
5679;BME280;2862;52.560;13.566;2023-12-20T08:23:10;99909.09;;;6.02;100.00
5679;BME280;2862;52.560;13.566;2023-12-20T08:33:14;99900.38;;;5.89;100.00
5679;BME280;2862;52.560;13.566;2023-12-20T08:43:17;99898.25;;;5.94;100.00
5679;BME280;2862;52.560;13.566;2023-12-20T08:53:21;99881.84;;;6.00;100.00
5679;BME280;2862;52.560;13.566;2023-12-20T09:03:25;99890.81;;;6.21;100.00
5679;BME280;2862;52.560;13.566;2023-12-20T09:13:29;99888.16;;;6.21;100.00
5679;BME280;2862;52.560;13.566;2023-12-20T09:23:33;99870.41;;;6.44;100.00
5679;BME280;2862;52.560;13.566;2023-12-20T09:33:37;99872.44;;;6.41;100.00
5679;BME280;2862;52.560;13.566;2023-12-20T09:43:41;99861.72;;;6.31;100.00
5679;BME280;2862;52.560;13.566;2023-12-20T09:53:47;99858.19;;;6.42;100.00
5679;BME280;2862;52.560;13.566;2023-12-20T10:03:54;99853.38;;;6.35;100.00
5679;BME280;2862;52.560;13.566;2023-12-20T10:14:00;99835.13;;;6.53;100.00
5679;BME280;2862;52.560;13.566;2023-12-20T10:24:04;99803.72;;;6.58;100.00
5679;BME280;2862;52.560;13.566;2023-12-20T10:34:08;99795.78;;;6.47;100.00
5679;BME280;2862;52.560;13.566;2023-12-20T10:44:12;99798.53;;;6.57;100.00
5679;BME280;2862;52.560;13.566;2023-12-20T10:54:17;99763.84;;;6.70;100.00
5679;BME280;2862;52.560;13.566;2023-12-20T11:04:24;99756.22;;;6.76;100.00
5679;BME280;2862;52.560;13.566;2023-12-20T11:14:35;99735.47;;;6.70;100.00
5679;BME280;2862;52.560;13.566;2023-12-20T11:24:44;99700.88;;;6.81;100.00
5679;BME280;2862;52.560;13.566;2023-12-20T11:34:50;99696.41;;;6.61;100.00
5679;BME280;2862;52.560;13.566;2023-12-20T11:44:53;99676.34;;;6.36;100.00
5679;BME280;2862;52.560;13.566;2023-12-20T11:55:00;99651.88;;;6.53;100.00
5679;BME280;2862;52.560;13.566;2023-12-20T12:05:03;99631.94;;;6.59;100.00
5679;BME280;2862;52.560;13.566;2023-12-20T12:15:08;99602.41;;;6.73;100.00
5679;BME280;2862;52.560;13.566;2023-12-20T12:25:13;99577.28;;;6.56;100.00
5679;BME280;2862;52.560;13.566;2023-12-20T12:35:17;99557.41;;;6.51;100.00
5679;BME280;2862;52.560;13.566;2023-12-20T12:45:21;99547.88;;;6.27;100.00
5679;BME280;2862;52.560;13.566;2023-12-20T12:55:25;99523.13;;;6.06;100.00
5679;BME280;2862;52.560;13.566;2023-12-20T13:05:29;99506.66;;;6.02;100.00
5679;BME280;2862;52.560;13.566;2023-12-20T13:15:35;99511.03;;;5.92;100.00
5679;BME280;2862;52.560;13.566;2023-12-20T13:25:39;99563.72;;;5.97;100.00
5679;BME280;2862;52.560;13.566;2023-12-20T13:35:44;99574.06;;;5.89;100.00
5679;BME280;2862;52.560;13.566;2023-12-20T13:45:47;99554.06;;;5.84;100.00
5679;BME280;2862;52.560;13.566;2023-12-20T13:55:51;99577.50;;;5.79;100.00
5679;BME280;2862;52.560;13.566;2023-12-20T14:05:54;99599.25;;;5.62;100.00
5679;BME280;2862;52.560;13.566;2023-12-20T14:15:59;99620.06;;;5.67;100.00
5679;BME280;2862;52.560;13.566;2023-12-20T14:26:03;99639.38;;;5.57;100.00
5679;BME280;2862;52.560;13.566;2023-12-20T14:36:08;99642.88;;;5.58;100.00
5679;BME280;2862;52.560;13.566;2023-12-20T14:46:10;99638.41;;;5.58;100.00
5679;BME280;2862;52.560;13.566;2023-12-20T14:56:15;99642.88;;;5.47;100.00
5679;BME280;2862;52.560;13.566;2023-12-20T15:06:18;99649.50;;;5.52;100.00
5679;BME280;2862;52.560;13.566;2023-12-20T15:16:23;99654.31;;;5.47;100.00
5679;BME280;2862;52.560;13.566;2023-12-20T15:26:29;99650.56;;;5.50;100.00
5679;BME280;2862;52.560;13.566;2023-12-20T15:36:38;99658.44;;;5.51;100.00
5679;BME280;2862;52.560;13.566;2023-12-20T15:46:47;99663.84;;;5.39;100.00
5679;BME280;2862;52.560;13.566;2023-12-20T15:56:51;99661.09;;;5.18;100.00
5679;BME280;2862;52.560;13.566;2023-12-20T16:06:54;99675.38;;;5.04;100.00
5679;BME280;2862;52.560;13.566;2023-12-20T16:16:59;99677.53;;;4.88;100.00
5679;BME280;2862;52.560;13.566;2023-12-20T16:27:02;99678.94;;;4.80;100.00
5679;BME280;2862;52.560;13.566;2023-12-20T16:37:06;99698.69;;;4.76;100.00
5679;BME280;2862;52.560;13.566;2023-12-20T16:47:09;99713.84;;;4.74;100.00
5679;BME280;2862;52.560;13.566;2023-12-20T16:57:14;99716.28;;;4.77;100.00
5679;BME280;2862;52.560;13.566;2023-12-20T17:07:16;99719.13;;;4.74;100.00
5679;BME280;2862;52.560;13.566;2023-12-20T17:17:21;99708.81;;;4.83;100.00
5679;BME280;2862;52.560;13.566;2023-12-20T17:27:24;99708.53;;;4.74;100.00
5679;BME280;2862;52.560;13.566;2023-12-20T17:37:28;99704.22;;;4.73;100.00
5679;BME280;2862;52.560;13.566;2023-12-20T17:47:31;99690.63;;;4.78;100.00
5679;BME280;2862;52.560;13.566;2023-12-20T17:57:35;99687.19;;;4.89;100.00
5679;BME280;2862;52.560;13.566;2023-12-20T18:07:38;99706.22;;;5.05;100.00
5679;BME280;2862;52.560;13.566;2023-12-20T18:17:43;99706.81;;;5.09;100.00
5679;BME280;2862;52.560;13.566;2023-12-20T18:27:46;99709.13;;;5.13;100.00
5679;BME280;2862;52.560;13.566;2023-12-20T18:37:50;99715.13;;;5.15;100.00
5679;BME280;2862;52.560;13.566;2023-12-20T18:47:53;99705.41;;;5.27;100.00
5679;BME280;2862;52.560;13.566;2023-12-20T18:57:57;99710.59;;;5.28;100.00
5679;BME280;2862;52.560;13.566;2023-12-20T19:08:00;99693.00;;;5.27;100.00
5679;BME280;2862;52.560;13.566;2023-12-20T19:18:06;99698.19;;;5.29;100.00
5679;BME280;2862;52.560;13.566;2023-12-20T19:28:09;99684.69;;;5.32;100.00
5679;BME280;2862;52.560;13.566;2023-12-20T19:38:13;99681.19;;;5.31;100.00
5679;BME280;2862;52.560;13.566;2023-12-20T19:48:18;99660.47;;;5.25;100.00
5679;BME280;2862;52.560;13.566;2023-12-20T19:58:22;99647.09;;;5.38;100.00
5679;BME280;2862;52.560;13.566;2023-12-20T20:08:25;99651.31;;;5.29;100.00
5679;BME280;2862;52.560;13.566;2023-12-20T20:18:29;99648.69;;;5.29;100.00
5679;BME280;2862;52.560;13.566;2023-12-20T20:28:32;99637.09;;;5.30;100.00
5679;BME280;2862;52.560;13.566;2023-12-20T20:38:36;99626.50;;;5.30;100.00
5679;BME280;2862;52.560;13.566;2023-12-20T20:48:40;99621.47;;;5.16;100.00
5679;BME280;2862;52.560;13.566;2023-12-20T20:58:45;99596.75;;;5.16;100.00
5679;BME280;2862;52.560;13.566;2023-12-20T21:08:49;99602.66;;;5.19;100.00
5679;BME280;2862;52.560;13.566;2023-12-20T21:18:53;99592.06;;;5.19;100.00
5679;BME280;2862;52.560;13.566;2023-12-20T21:28:56;99579.16;;;5.15;100.00
5679;BME280;2862;52.560;13.566;2023-12-20T21:39:00;99562.34;;;4.93;100.00
5679;BME280;2862;52.560;13.566;2023-12-20T21:49:04;99548.00;;;4.85;100.00
5679;BME280;2862;52.560;13.566;2023-12-20T21:59:08;99530.78;;;5.01;100.00
5679;BME280;2862;52.560;13.566;2023-12-20T22:09:11;99522.22;;;4.87;100.00
5679;BME280;2862;52.560;13.566;2023-12-20T22:19:15;99482.06;;;4.70;100.00
5679;BME280;2862;52.560;13.566;2023-12-20T22:29:19;99470.50;;;4.71;100.00
5679;BME280;2862;52.560;13.566;2023-12-20T22:39:23;99455.19;;;4.64;100.00
5679;BME280;2862;52.560;13.566;2023-12-20T22:49:26;99437.41;;;4.55;100.00
5679;BME280;2862;52.560;13.566;2023-12-20T22:59:30;99418.28;;;4.51;100.00
5679;BME280;2862;52.560;13.566;2023-12-20T23:09:34;99408.31;;;4.32;100.00
5679;BME280;2862;52.560;13.566;2023-12-20T23:19:38;99379.06;;;4.34;100.00
5679;BME280;2862;52.560;13.566;2023-12-20T23:29:41;99346.13;;;4.26;100.00
5679;BME280;2862;52.560;13.566;2023-12-20T23:39:45;99313.91;;;4.21;100.00
5679;BME280;2862;52.560;13.566;2023-12-20T23:49:48;99245.16;;;4.10;100.00
5679;BME280;2862;52.560;13.566;2023-12-20T23:59:52;99204.34;;;4.24;100.00
